Time;durP1;ratioP1;P1;durP2;ratioP2;P2;SDS_P1;SDS_P2;PMS_P1;PMS_P2;Temp;Humidity;BMP_temperature;BMP_pressure;BME280_temperature;BME280_humidity;BME280_pressure;Samples;Min_cycle;Max_cycle;Signal;HPM_P1;HPM_P2
2022/02/04 00:09:18;;;;;;;14.07;7.00;;;-1.80;99.90;;;;;;5077164;28;20486;-74
2022/02/04 00:23:04;;;;;;;11.48;7.07;;;-1.80;99.90;;;;;;5059337;28;20044;-74
2022/02/04 00:28:24;;;;;;;10.90;6.72;;;-1.80;99.90;;;;;;5076929;28;20060;-75
2022/02/04 00:31:04;;;;;;;11.63;6.30;;;-1.90;99.90;;;;;;5058580;28;20115;-75
2022/02/04 00:33:32;;;;;;;10.55;6.32;;;-1.90;99.90;;;;;;5058625;28;20021;-75
2022/02/04 00:36:06;;;;;;;15.98;7.60;;;-1.90;99.90;;;;;;5058474;28;20387;-76
2022/02/04 00:38:36;;;;;;;10.95;6.32;;;-1.90;99.90;;;;;;5058417;28;20025;-76
2022/02/04 00:41:07;;;;;;;12.88;6.57;;;-1.90;99.90;;;;;;5076270;28;20030;-76
2022/02/04 00:43:33;;;;;;;13.65;7.28;;;-1.80;99.90;;;;;;5076468;28;20020;-76
2022/02/04 00:46:15;;;;;;;12.48;7.25;;;-1.80;99.90;;;;;;5058206;28;20036;-76
2022/02/04 00:51:36;;;;;;;12.70;6.40;;;-1.80;99.90;;;;;;5076350;28;20471;-75
2022/02/04 01:26:14;;;;;;;10.13;6.13;;;-2.10;99.90;;;;;;5075750;28;20093;-75
2022/02/04 01:28:42;;;;;;;12.27;5.93;;;-2.10;99.90;;;;;;5057638;28;20016;-76
2022/02/04 01:31:11;;;;;;;11.05;6.40;;;-2.10;99.90;;;;;;5075331;28;20046;-75
2022/02/04 01:33:37;;;;;;;11.02;6.18;;;-2.20;99.90;;;;;;5055658;28;20025;-76
2022/02/04 01:36:04;;;;;;;11.48;5.88;;;-2.20;99.90;;;;;;5054015;28;20033;-76
2022/02/04 01:38:30;;;;;;;10.18;6.07;;;-2.20;99.90;;;;;;5053870;28;20120;-75
2022/02/04 01:40:57;;;;;;;10.73;5.95;;;-2.20;99.90;;;;;;5065695;28;20436;-75
2022/02/04 01:43:23;;;;;;;11.13;6.43;;;-2.20;99.90;;;;;;5060552;28;20039;-76
2022/02/04 01:45:58;;;;;;;11.27;5.85;;;-2.20;99.90;;;;;;5054968;28;20032;-75
2022/02/04 01:48:25;;;;;;;16.02;6.43;;;-2.20;99.90;;;;;;5074236;28;20031;-75
2022/02/04 01:50:52;;;;;;;15.57;5.93;;;-2.20;99.90;;;;;;5095016;28;20028;-76
2022/02/04 01:53:20;;;;;;;11.15;6.32;;;-2.20;99.90;;;;;;5093924;28;20020;-76
2022/02/04 01:55:48;;;;;;;12.95;7.03;;;-2.20;99.90;;;;;;5075116;28;20463;-75
2022/02/04 01:58:14;;;;;;;12.50;6.47;;;-2.20;99.90;;;;;;5056855;28;20025;-75
2022/02/04 02:00:40;;;;;;;12.23;6.03;;;-2.20;99.90;;;;;;5056790;28;20379;-76
2022/02/04 02:03:08;;;;;;;11.55;5.80;;;-2.20;99.90;;;;;;5056783;28;20029;-76
2022/02/04 02:05:34;;;;;;;15.80;6.72;;;-2.20;99.90;;;;;;5074497;28;20082;-76
2022/02/04 02:08:07;;;;;;;11.75;5.95;;;-2.10;99.90;;;;;;5089386;28;20020;-76
2022/02/04 02:10:32;;;;;;;10.07;5.82;;;-2.10;99.90;;;;;;5076403;28;20386;-76
2022/02/04 02:52:46;;;;;;;10.95;6.40;;;-2.50;99.90;;;;;;5072574;28;20032;-76
2022/02/04 03:00:25;;;;;;;9.38;5.38;;;-2.50;99.90;;;;;;5074543;28;20028;-76
2022/02/04 03:02:53;;;;;;;10.38;5.63;;;-2.60;99.90;;;;;;5073865;28;20016;-76
2022/02/04 03:05:19;;;;;;;10.93;5.38;;;-2.50;99.90;;;;;;5055853;28;20052;-76
2022/02/04 03:07:44;;;;;;;11.27;6.45;;;-2.60;99.90;;;;;;5073824;28;20020;-76
2022/02/04 03:10:10;;;;;;;10.75;5.95;;;-2.60;99.90;;;;;;5083581;28;20016;-75
2022/02/04 03:12:36;;;;;;;12.57;6.45;;;-2.70;99.90;;;;;;5093960;28;20054;-75
2022/02/04 03:15:03;;;;;;;13.10;6.18;;;-2.70;99.90;;;;;;5093970;28;20024;-75
2022/02/04 03:17:29;;;;;;;12.10;5.90;;;-2.70;99.90;;;;;;5093825;28;20505;-76
2022/02/04 03:19:58;;;;;;;10.75;5.88;;;-2.80;99.90;;;;;;5080182;28;20028;-76
2022/02/04 03:22:24;;;;;;;10.98;6.35;;;-2.80;99.90;;;;;;5055748;28;20486;-75
2022/02/04 03:24:57;;;;;;;12.05;6.30;;;-2.90;99.90;;;;;;5074507;28;20051;-75
2022/02/04 03:27:31;;;;;;;13.77;6.28;;;-2.90;99.90;;;;;;5093903;28;20016;-75
2022/02/04 03:30:06;;;;;;;10.00;6.32;;;-3.00;99.90;;;;;;5093777;28;20016;-75
2022/02/04 03:32:33;;;;;;;10.82;6.43;;;-3.00;99.90;;;;;;5094097;28;20566;-76
2022/02/04 03:34:58;;;;;;;12.40;6.53;;;-3.10;99.90;;;;;;5094357;28;20024;-76
2022/02/04 03:37:24;;;;;;;13.55;6.88;;;-3.10;99.90;;;;;;5093806;28;20027;-76
2022/02/04 03:39:50;;;;;;;10.35;6.40;;;-3.20;99.90;;;;;;5092260;28;20035;-76
2022/02/04 03:42:15;;;;;;;11.68;6.75;;;-3.20;99.90;;;;;;5093847;28;20466;-76
2022/02/04 03:44:41;;;;;;;15.88;7.53;;;-3.20;99.90;;;;;;5092353;28;20493;-76
2022/02/04 03:47:07;;;;;;;14.98;7.10;;;-3.30;99.90;;;;;;5093622;28;20107;-76
2022/02/04 03:49:32;;;;;;;12.00;6.93;;;-3.30;99.90;;;;;;5092165;28;20023;-76
2022/02/04 03:51:58;;;;;;;14.55;7.68;;;-3.30;99.90;;;;;;5093080;28;20023;-76
2022/02/04 03:54:24;;;;;;;15.05;7.75;;;-3.30;99.90;;;;;;5092031;28;20032;-76
2022/02/04 03:56:49;;;;;;;15.32;8.45;;;-3.40;99.90;;;;;;5093483;28;20032;-75
2022/02/04 03:59:15;;;;;;;18.80;8.85;;;-3.40;99.90;;;;;;5092210;28;20489;-75
2022/02/04 04:01:41;;;;;;;17.08;8.15;;;-3.40;99.90;;;;;;5092329;28;20035;-75
2022/02/04 04:04:06;;;;;;;14.23;7.70;;;-3.40;99.90;;;;;;5091997;28;20360;-75
2022/02/04 04:06:32;;;;;;;23.52;8.63;;;-3.40;99.90;;;;;;5093710;28;20028;-75
2022/02/04 04:08:58;;;;;;;25.92;8.45;;;-3.40;99.90;;;;;;5093393;28;20038;-75
2022/02/04 04:11:24;;;;;;;20.08;8.10;;;-3.50;99.90;;;;;;5093187;28;20359;-75
2022/02/04 04:13:50;;;;;;;19.38;9.00;;;-3.50;99.90;;;;;;5093355;28;20151;-75
2022/02/04 04:16:18;;;;;;;16.60;8.88;;;-3.50;99.90;;;;;;5093357;28;20078;-75
2022/02/04 04:18:44;;;;;;;17.17;8.05;;;-3.50;99.90;;;;;;5091915;28;20493;-75
2022/02/04 04:21:09;;;;;;;13.60;7.57;;;-3.50;99.90;;;;;;5093382;28;20028;-75
2022/02/04 04:23:35;;;;;;;15.40;7.28;;;-3.60;99.90;;;;;;5090868;28;20367;-76
2022/02/04 04:26:01;;;;;;;14.32;7.55;;;-3.60;99.90;;;;;;5054735;28;20035;-76
2022/02/04 04:28:26;;;;;;;16.45;8.18;;;-3.60;99.90;;;;;;5073135;28;20431;-76
2022/02/04 04:30:52;;;;;;;13.57;7.57;;;-3.70;99.90;;;;;;5055051;28;20471;-76
2022/02/04 04:33:17;;;;;;;14.82;8.05;;;-3.70;99.90;;;;;;5075740;28;20032;-76
2022/02/04 04:35:43;;;;;;;14.85;7.55;;;-3.70;99.90;;;;;;5076461;28;20060;-76
2022/02/04 04:38:24;;;;;;;13.70;7.40;;;-3.70;99.90;;;;;;5058531;28;20530;-76
2022/02/04 12:38:12;;;;;;;12.88;7.22;;;-1.80;97.70;;;;;;4958292;28;20063;-96
2022/02/04 12:46:26;;;;;;;11.05;6.35;;;-1.60;96.80;;;;;;5782762;23;20027;-96
2022/02/04 12:49:10;;;;;;;13.13;7.15;;;-1.60;97.90;;;;;;4932154;28;20076;-96
2022/02/04 12:51:56;;;;;;;14.02;7.93;;;-1.50;96.60;;;;;;4915124;29;20051;-96
2022/02/04 12:54:44;;;;;;;11.73;6.07;;;-1.40;96.90;;;;;;4914233;29;20120;-96
2022/02/04 13:03:10;;;;;;;15.05;9.45;;;-1.30;96.40;;;;;;4915606;29;20119;-95
2022/02/04 13:11:24;;;;;;;16.00;8.98;;;-1.10;96.60;;;;;;4916161;29;20071;-96
2022/02/04 13:13:55;;;;;;;20.58;9.35;;;-1.20;95.60;;;;;;4907134;29;20061;-96
2022/02/04 13:16:33;;;;;;;13.68;7.50;;;-1.10;95.50;;;;;;4915078;29;20028;-96
2022/02/04 13:19:05;;;;;;;10.35;6.13;;;-1.20;95.50;;;;;;4914406;29;20047;-96
2022/02/04 13:21:33;;;;;;;10.45;6.30;;;-1.20;95.70;;;;;;4915158;29;20048;-96
2022/02/04 13:24:06;;;;;;;14.20;7.55;;;-1.20;95.90;;;;;;4913938;29;20056;-96
2022/02/04 13:26:32;;;;;;;12.15;7.38;;;-1.20;96.10;;;;;;4913517;29;20488;-96
2022/02/04 13:29:06;;;;;;;10.77;6.43;;;-1.10;96.30;;;;;;4915005;29;20033;-96
2022/02/04 13:31:40;;;;;;;9.57;6.22;;;-1.10;95.70;;;;;;4915058;29;20028;-96
2022/02/04 13:34:27;;;;;;;16.13;8.45;;;-1.10;95.80;;;;;;4916611;29;20028;-96
2022/02/04 13:37:30;;;;;;;13.52;6.97;;;-1.10;95.60;;;;;;4918284;29;20037;-96
2022/02/04 13:40:09;;;;;;;10.55;6.75;;;-1.20;95.20;;;;;;4916391;29;20108;-96
2022/02/04 13:42:46;;;;;;;8.77;5.90;;;-1.10;94.80;;;;;;4915209;29;20084;-96
2022/02/04 13:46:07;;;;;;;11.93;6.68;;;-1.20;94.50;;;;;;4907130;29;20029;-95
2022/02/04 13:48:56;;;;;;;12.15;6.15;;;-1.30;94.70;;;;;;4902542;29;20048;-96
2022/02/04 13:55:22;;;;;;;12.20;6.18;;;-1.40;95.10;;;;;;4794529;29;20146;-96
2022/02/04 14:01:18;;;;;;;9.70;5.88;;;-1.40;94.80;;;;;;4881765;29;20048;-93
2022/02/04 14:03:53;;;;;;;8.65;5.65;;;-1.50;95.20;;;;;;4902139;29;20483;-94
2022/02/04 14:06:25;;;;;;;9.30;5.88;;;-1.50;95.10;;;;;;4900361;29;20080;-94
2022/02/04 14:11:30;;;;;;;11.80;7.05;;;-1.60;95.80;;;;;;4901900;29;20033;-93
2022/02/04 14:13:57;;;;;;;15.70;6.97;;;-1.70;95.90;;;;;;4900144;29;20048;-93
2022/02/04 14:16:23;;;;;;;11.48;6.88;;;-1.70;96.00;;;;;;4900310;29;20028;-93
2022/02/04 14:18:49;;;;;;;13.25;7.72;;;-1.70;96.30;;;;;;4900217;29;20033;-93
2022/02/04 14:21:18;;;;;;;15.48;8.70;;;-1.70;96.40;;;;;;4900263;29;20075;-93
2022/02/04 14:23:48;;;;;;;13.38;7.90;;;-1.80;96.40;;;;;;4900270;29;20103;-92
2022/02/04 14:26:36;;;;;;;14.23;8.73;;;-1.80;96.60;;;;;;4900533;29;20115;-93
2022/02/04 14:31:41;;;;;;;17.33;9.00;;;-1.90;96.30;;;;;;4901755;29;20481;-93
2022/02/04 14:37:09;;;;;;;14.63;8.27;;;-2.00;96.70;;;;;;4901336;29;20032;-93
2022/02/04 14:53:15;;;;;;;24.75;12.52;;;-2.30;96.70;;;;;;4900997;29;20028;-94
2022/02/04 15:01:20;;;;;;;22.80;12.90;;;-2.40;97.30;;;;;;4900901;29;20040;-93
2022/02/04 15:03:58;;;;;;;70.60;28.65;;;-2.40;96.90;;;;;;4916923;29;20478;-92
2022/02/04 15:06:33;;;;;;;104.22;38.05;;;-2.50;97.20;;;;;;4919152;29;20452;-92
2022/02/04 15:08:58;;;;;;;46.15;18.52;;;-2.50;97.20;;;;;;4918343;29;20118;-92
2022/02/04 15:11:37;;;;;;;32.28;15.80;;;-2.60;97.30;;;;;;4919109;29;20032;-93
2022/02/04 15:14:08;;;;;;;36.08;16.63;;;-2.60;97.20;;;;;;4909247;29;20032;-93
2022/02/04 15:16:38;;;;;;;22.27;11.63;;;-2.60;97.50;;;;;;4915574;29;20028;-92
2022/02/04 15:19:04;;;;;;;;;;;-2.70;97.50;;;;;;4902237;29;20029;-92
2022/02/04 15:21:31;;;;;;;26.90;12.82;;;-2.80;97.40;;;;;;4901255;29;20308;-92
2022/02/04 15:23:58;;;;;;;27.88;12.80;;;-2.80;97.50;;;;;;4899212;29;20032;-93
2022/02/04 15:26:31;;;;;;;22.50;12.52;;;-2.80;97.50;;;;;;4907860;29;20020;-93
2022/02/04 15:29:07;;;;;;;29.30;13.40;;;-2.80;97.40;;;;;;4918400;29;20055;-92
2022/02/04 15:31:42;;;;;;;24.10;11.93;;;-2.80;97.30;;;;;;4919254;29;20050;-96
2022/02/04 15:34:09;;;;;;;26.52;14.27;;;-2.90;97.20;;;;;;4919160;29;20032;-94
2022/02/04 15:36:44;;;;;;;22.83;11.48;;;-2.90;97.60;;;;;;4918842;29;20024;-95
2022/02/04 15:39:25;;;;;;;23.38;11.73;;;-2.90;97.60;;;;;;4919111;29;20020;-96
2022/02/04 15:41:55;;;;;;;24.13;12.32;;;-3.00;97.70;;;;;;4918366;29;20428;-96
2022/02/04 15:44:34;;;;;;;26.50;13.38;;;-3.00;97.60;;;;;;4917488;29;20055;-95
2022/02/04 15:47:18;;;;;;;24.00;13.73;;;-3.00;97.50;;;;;;4911471;29;20048;-96
2022/02/04 15:57:42;;;;;;;23.85;11.00;;;-3.10;97.70;;;;;;4900412;29;20021;-96
2022/02/04 16:03:14;;;;;;;28.00;13.48;;;-3.10;97.80;;;;;;4895323;29;20128;-95
2022/02/04 16:05:42;;;;;;;22.65;12.60;;;-3.10;97.50;;;;;;4899619;29;20028;-93
2022/02/04 16:08:23;;;;;;;25.55;11.93;;;-3.10;97.70;;;;;;4880160;29;20060;-93
2022/02/04 16:10:59;;;;;;;23.08;11.57;;;-3.20;97.60;;;;;;4873298;29;20029;-94
2022/02/04 16:16:08;;;;;;;24.30;11.93;;;-3.20;97.90;;;;;;4899628;29;20068;-94
2022/02/04 16:18:43;;;;;;;25.85;12.38;;;-3.20;97.60;;;;;;4883318;29;20025;-95
2022/02/04 16:21:21;;;;;;;27.50;11.75;;;-3.20;97.70;;;;;;4880512;29;20114;-95
2022/02/04 16:25:37;;;;;;;28.35;11.68;;;-3.30;97.30;;;;;;5009743;27;3473669;-95
2022/02/04 16:30:47;;;;;;;24.33;11.05;;;-3.30;97.50;;;;;;5114062;28;20386;-95
2022/02/04 16:33:21;;;;;;;20.88;11.05;;;-3.30;97.70;;;;;;5095977;28;20023;-96
2022/02/04 16:35:49;;;;;;;24.70;10.90;;;-3.30;97.70;;;;;;5095306;28;20024;-95
2022/02/04 16:38:18;;;;;;;22.92;11.10;;;-3.30;98.00;;;;;;5093898;28;20028;-93
2022/02/04 16:40:52;;;;;;;23.02;10.23;;;-3.40;97.80;;;;;;5093767;28;20110;-95
2022/02/04 16:44:05;;;;;;;24.27;11.15;;;-3.40;97.90;;;;;;5095072;28;20028;-96
2022/02/04 16:46:34;;;;;;;24.52;11.50;;;-3.40;98.10;;;;;;5081814;28;20032;-94
2022/02/04 16:49:14;;;;;;;28.20;12.60;;;-3.40;98.00;;;;;;5094601;28;20020;-96
2022/02/04 16:51:43;;;;;;;22.67;11.82;;;-3.40;98.00;;;;;;5093593;28;20032;-95
2022/02/04 16:54:22;;;;;;;24.75;11.35;;;-3.40;98.20;;;;;;5111189;28;20027;-95
2022/02/04 16:57:04;;;;;;;;;;;;;;;;;;;;;
2022/02/04 16:59:36;;;;;;;22.67;11.05;;;-3.40;98.10;;;;;;5111832;28;20026;-95
2022/02/04 17:02:07;;;;;;;20.55;10.82;;;-3.50;97.80;;;;;;5093954;28;20032;-95
2022/02/04 17:04:35;;;;;;;19.38;10.00;;;-3.50;98.10;;;;;;5094085;28;20110;-95
2022/02/04 17:07:09;;;;;;;24.33;12.00;;;-3.50;98.30;;;;;;5093590;28;20031;-95
2022/02/04 17:10:02;;;;;;;22.95;12.65;;;-3.50;98.40;;;;;;5094369;28;20032;-94
2022/02/04 17:12:41;;;;;;;22.08;11.02;;;-3.50;98.40;;;;;;5094769;28;20027;-96
2022/02/04 17:15:54;;;;;;;24.33;11.27;;;-3.60;98.40;;;;;;5093884;28;20028;-94
2022/02/04 17:18:36;;;;;;;25.63;11.13;;;-3.60;98.50;;;;;;5056222;28;20056;-95
2022/02/04 17:21:49;;;;;;;;;;;;;;;;;;;;;
2022/02/04 17:24:47;;;;;;;27.60;13.40;;;-3.60;98.60;;;;;;5027684;28;20059;-96
2022/02/04 17:27:24;;;;;;;;;;;;;;;;;;;;;
2022/02/04 17:30:13;;;;;;;29.30;12.65;;;-3.70;98.80;;;;;;5071350;28;20459;-96
2022/02/04 17:33:16;;;;;;;30.38;14.13;;;-3.70;99.00;;;;;;5053853;28;20025;-96
2022/02/04 17:35:45;;;;;;;28.23;14.35;;;-3.70;98.90;;;;;;5045249;28;20029;-96
2022/02/04 17:38:58;;;;;;;34.67;14.40;;;-3.80;99.00;;;;;;5039320;28;20545;-96
2022/02/04 17:42:30;;;;;;;39.58;15.57;;;-3.80;99.10;;;;;;5041468;28;20080;-96
2022/02/04 17:44:58;;;;;;;47.00;18.23;;;-3.80;99.10;;;;;;4960018;28;20035;-96
2022/02/04 17:47:39;;;;;;;62.95;22.88;;;-3.80;99.10;;;;;;5030346;28;20037;-96
2022/02/04 17:50:31;;;;;;;45.30;17.38;;;-3.80;99.20;;;;;;5039188;28;20060;-96
2022/02/04 18:10:10;;;;;;;;;;;;;;;;;;;;;
2022/02/04 18:12:49;;;;;;;27.10;12.82;;;-4.00;99.90;;;;;;5060728;28;20035;-96
2022/02/04 18:15:17;;;;;;;34.28;14.27;;;-4.10;99.90;;;;;;5041599;28;20033;-96
2022/02/04 18:18:14;;;;;;;86.05;28.98;;;-4.10;99.90;;;;;;5056831;28;20384;-96
2022/02/04 18:23:50;;;;;;;47.00;18.13;;;-4.20;99.90;;;;;;5015092;28;20097;-95
2022/02/04 18:26:24;;;;;;;49.97;20.77;;;-4.20;99.90;;;;;;5030938;28;20467;-95
2022/02/04 18:29:13;;;;;;;58.55;21.92;;;-4.20;99.90;;;;;;5039234;28;20154;-95
2022/02/04 18:32:27;;;;;;;38.67;16.02;;;-4.20;99.90;;;;;;5038148;28;20040;-96
2022/02/04 18:35:29;;;;;;;43.80;19.23;;;-4.20;99.90;;;;;;5051270;28;20570;-96
2022/02/04 18:44:03;;;;;;;31.05;15.98;;;-4.30;99.90;;;;;;5010258;28;20552;-95
2022/02/04 18:46:54;;;;;;;37.20;18.15;;;-4.40;99.90;;;;;;5037631;28;20048;-95
2022/02/04 18:49:41;;;;;;;33.90;15.38;;;-4.50;99.90;;;;;;5038485;28;20025;-95
2022/02/04 18:58:23;;;;;;;32.25;13.93;;;-4.60;99.90;;;;;;5014492;28;20069;-95
2022/02/04 19:01:36;;;;;;;;;;;;;;;;;;;;;
2022/02/04 19:04:34;;;;;;;40.97;16.17;;;-4.70;99.90;;;;;;5056064;28;20385;-95
2022/02/04 19:07:10;;;;;;;47.60;19.15;;;-4.60;99.90;;;;;;5035257;28;20031;-95
2022/02/04 19:09:43;;;;;;;42.45;17.05;;;-4.60;99.90;;;;;;5037695;28;20017;-95
2022/02/04 19:12:22;;;;;;;27.75;13.23;;;-4.60;99.90;;;;;;5038002;28;20478;-95
2022/02/04 19:18:07;;;;;;;30.63;15.32;;;-4.60;99.90;;;;;;5055175;28;20065;-96
2022/02/04 19:20:42;;;;;;;31.67;14.35;;;-4.60;99.90;;;;;;5038958;28;20132;-95
2022/02/04 19:23:24;;;;;;;31.35;15.15;;;-4.60;99.90;;;;;;5039028;28;20037;-96
2022/02/04 19:26:16;;;;;;;;;;;;;;;;;;;;;
2022/02/04 19:28:47;;;;;;;35.83;16.25;;;-4.60;99.90;;;;;;5057050;28;20029;-96
2022/02/04 19:31:18;;;;;;;36.47;16.55;;;-4.60;99.90;;;;;;5038140;28;20495;-96
2022/02/04 19:34:00;;;;;;;41.38;17.52;;;-4.60;99.90;;;;;;5042667;28;20044;-96
2022/02/04 19:36:29;;;;;;;38.55;17.40;;;-4.70;99.90;;;;;;5041089;28;20028;-96
2022/02/04 19:38:57;;;;;;;41.38;16.77;;;-4.70;99.90;;;;;;5040319;28;20120;-96
2022/02/04 19:41:45;;;;;;;42.45;18.63;;;-4.80;99.90;;;;;;5042411;28;20037;-96
2022/02/04 19:44:51;;;;;;;;;;;;;;;;;;;;;
2022/02/04 20:13:15;;;;;;;321.63;102.57;;;-5.10;99.90;;;;;;5056473;28;20126;-95
2022/02/04 20:25:33;;;;;;;218.98;73.90;;;-5.30;99.90;;;;;;5074204;28;20056;-96
2022/02/04 20:28:07;;;;;;;211.45;74.80;;;-5.40;99.90;;;;;;5055763;28;20033;-96
2022/02/04 20:30:45;;;;;;;231.45;80.45;;;-5.40;99.90;;;;;;5056201;28;20028;-96
2022/02/04 20:33:17;;;;;;;222.10;83.50;;;-5.50;99.90;;;;;;5056894;28;20029;-96
2022/02/04 20:36:01;;;;;;;233.63;81.68;;;-5.40;99.90;;;;;;5056759;28;20483;-96
2022/02/04 20:38:52;;;;;;;219.52;83.15;;;-5.50;99.90;;;;;;5056511;28;20028;-96
2022/02/04 20:41:31;;;;;;;223.82;82.43;;;-5.50;99.90;;;;;;5056929;28;20078;-96
2022/02/04 20:44:10;;;;;;;220.35;79.75;;;-5.50;99.90;;;;;;5056345;28;20096;-96
2022/02/04 20:46:50;;;;;;;216.57;80.75;;;-5.60;99.90;;;;;;5057268;28;20111;-94
2022/02/04 20:49:22;;;;;;;213.10;80.43;;;-5.60;99.90;;;;;;5055781;28;20033;-95
2022/02/04 20:51:50;;;;;;;212.02;78.63;;;-5.60;99.90;;;;;;5056819;28;20020;-94
2022/02/04 20:54:19;;;;;;;199.48;75.50;;;-5.70;99.90;;;;;;5055356;28;20040;-96
2022/02/04 20:56:53;;;;;;;197.27;74.00;;;-5.70;99.90;;;;;;5040340;28;20032;-96
2022/02/04 20:59:44;;;;;;;190.32;71.78;;;-5.70;99.90;;;;;;5058075;28;20121;-96
2022/02/04 21:02:36;;;;;;;197.75;73.25;;;-5.70;99.90;;;;;;5056476;28;20025;-96
2022/02/04 21:05:10;;;;;;;177.45;66.07;;;-5.80;99.90;;;;;;5072752;28;20032;-96
2022/02/04 21:13:56;;;;;;;288.33;87.97;;;-5.80;99.90;;;;;;5077698;28;20074;-96
2022/02/04 21:16:47;;;;;;;349.13;108.53;;;-5.80;99.90;;;;;;5060404;28;20108;-96
2022/02/04 21:19:16;;;;;;;409.20;117.13;;;-5.80;99.90;;;;;;5059796;28;20536;-96
2022/02/04 21:21:50;;;;;;;349.50;108.70;;;-5.80;99.90;;;;;;5059868;28;20030;-96
2022/02/04 21:24:27;;;;;;;288.45;94.57;;;-5.80;99.90;;;;;;5058857;28;20049;-96
2022/02/04 21:27:06;;;;;;;289.45;94.60;;;-5.80;99.90;;;;;;5059156;28;20120;-96
2022/02/04 21:29:42;;;;;;;255.68;84.20;;;-5.80;99.90;;;;;;5060230;28;20051;-96
2022/02/04 21:32:16;;;;;;;230.05;76.50;;;-5.80;99.90;;;;;;5059731;28;20119;-96
2022/02/04 21:37:54;;;;;;;238.32;79.20;;;-5.90;99.90;;;;;;5079593;28;20044;-96
2022/02/04 21:40:40;;;;;;;213.15;72.85;;;-5.90;99.90;;;;;;5078170;28;20386;-96
2022/02/04 21:43:51;;;;;;;206.50;74.65;;;-6.00;99.90;;;;;;5059897;28;20060;-96
2022/02/04 21:46:42;;;;;;;171.70;66.03;;;-6.00;99.90;;;;;;5062156;28;20043;-96
2022/02/04 21:49:28;;;;;;;165.65;62.05;;;-6.00;99.90;;;;;;5066758;28;20016;-96
2022/02/04 22:32:17;;;;;;;;;;;;;;;;;;;;;
